Accueil
METAR-TAF:

METAR-TAF

Aéroports :

Aérodrome de Samedan-Engadin

Saint-Moritz, Suisse

latitude: 46-32-03N, longitude: 9-53-03E, altitude: 1707 m

Observation

Le bulletin a été fait il y a 32 minutes, à 20:20 UTC
Vent 1 kt de direction variable
Température 4°C
Humidité 60%
Pression 1020 hPa
Visibilité 10 km ou plus
pas de nuages en-dessous de 1500 mètres et pas de cumulonimbus.

METAR: LSZS 312020Z AUTO VRB01KT CAVOK 04/M03 Q1020

Heure: 22:52 (20:52 UTC)

Prévision

Le bulletin a été fait il y a 6 heures et 27 minutes, à 14:25 UTC
Prévision valable du 31 à 15 UTC au 31 à 24 UTC
Vent 5 kt de nord/nord-ouest
Visibilité 10 km ou plus
Nuages fragmentés à une hauteur de 6500 ft

TAF: LSZS 311425Z 3115/3124 34005KT 9999 BKN065 TX14/3115Z

Observations et prévisions météorologiques de plus de 4000 aéroports (messages METAR et TAF).

Les stations disponibles sont représentées par des disques jaunes et rouges sur la carte.

Passer la souris dessus pour voir le nom de la station.

Cliquer dessus pour voir les observations et prévisions météorologiques.

Pour changer de carte: cliquez sur les boutons verts avec une croix noire pour zoomer, sur le bouton vert avec un tiret pour effectuer un zoom arrière, ou sur les flèches vertes pour les cartes adjacentes.


METAR-TAF: